X  Lukk Metar værinformasjon om luftfart     EHKD De Kooy Airport
Temperatur
14°C Temperatur
9°C Duggpunkt
72% Luftfuktighet



Vind
16 KM/T
10 MPT
4 M/S
9 KNP



230°
SV
Nåværende forhold

For det meste Overskyet For det meste Overskyet
Trykk 1015.92 (hPa) - 30 (inHg)
Sikt 6 (mil) - 9.7 (km)
Flyplass
Flyplass-kode EHKD

Plassering: De Kooy Airport
Avstand: 34 (km)

Metar:
EHKD 271825Z AUTO 23009KT 200V260 9999 BKN100 OVC160 14/09 Q1016 BLU NOSIG

Tid: 27-05-2024 20:25 CEST